Time;durP1;ratioP1;P1;durP2;ratioP2;P2;SDS_P1;SDS_P2;PMS_P1;PMS_P2;Temp;Humidity;BMP_temperature;BMP_pressure;BME280_temperature;BME280_humidity;BME280_pressure;Samples;Min_cycle;Max_cycle;Signal;HPM_P1;HPM_P2
2022/06/16 00:00:22;;;;;;;6.10;5.73;;;;;;;;;;4937495;29;20417;-69
2022/06/16 00:02:51;;;;;;;5.83;5.43;;;;;;;;;;4937118;29;20479;-65
2022/06/16 00:05:20;;;;;;;6.23;5.60;;;;;;;;;;4937128;29;20913;-66
2022/06/16 00:07:46;;;;;;;6.77;5.90;;;;;;;;;;4937184;29;20811;-67
2022/06/16 00:10:12;;;;;;;5.47;5.13;;;;;;;;;;4937126;29;20746;-64
2022/06/16 00:12:39;;;;;;;7.93;5.57;;;;;;;;;;4937040;29;20920;-63
2022/06/16 00:15:06;;;;;;;6.47;5.87;;;;;;;;;;4937112;29;20877;-68
2022/06/16 00:17:32;;;;;;;5.63;5.20;;;;;;;;;;4936940;29;20410;-67
2022/06/16 00:20:00;;;;;;;6.13;4.87;;;;;;;;;;4936900;29;20505;-69
2022/06/16 00:22:26;;;;;;;6.23;5.60;;;;;;;;;;4936805;29;20819;-65
2022/06/16 00:24:52;;;;;;;5.20;4.73;;;;;;;;;;4936854;29;20421;-64
2022/06/16 00:27:18;;;;;;;5.93;5.63;;;;;;;;;;4936799;29;20468;-65
2022/06/16 00:29:44;;;;;;;14.27;5.80;;;;;;;;;;4936975;29;20420;-70
2022/06/16 00:32:10;;;;;;;6.03;5.00;;;;;;;;;;4936555;29;20512;-64
2022/06/16 00:34:36;;;;;;;6.73;5.93;;;;;;;;;;4936613;29;20409;-67
2022/06/16 00:37:02;;;;;;;9.13;5.93;;;;;;;;;;4936627;29;20410;-65
2022/06/16 00:39:28;;;;;;;8.90;5.60;;;;;;;;;;4936938;29;20817;-69
2022/06/16 00:41:55;;;;;;;9.93;5.30;;;;;;;;;;4936465;29;20437;-65
2022/06/16 00:44:21;;;;;;;9.77;5.70;;;;;;;;;;4936838;29;20449;-68
2022/06/16 00:46:47;;;;;;;7.77;5.17;;;;;;;;;;4919503;29;20469;-69
2022/06/16 00:49:14;;;;;;;5.80;5.40;;;;;;;;;;4935651;29;20399;-66
2022/06/16 00:51:48;;;;;;;9.10;5.30;;;;;;;;;;4936520;29;20861;-68
2022/06/16 00:54:19;;;;;;;7.57;5.13;;;;;;;;;;4936440;29;20412;-71
2022/06/16 00:56:46;;;;;;;10.90;5.87;;;;;;;;;;4936413;29;20409;-67
2022/06/16 00:59:12;;;;;;;7.60;5.00;;;;;;;;;;4936328;29;20406;-66
2022/06/16 01:01:40;;;;;;;5.00;4.70;;;;;;;;;;4936330;29;20416;-69
2022/06/16 01:06:52;;;;;;;6.23;5.63;;;;;;;;;;4936564;29;20880;-65
2022/06/16 01:09:23;;;;;;;6.43;5.20;;;;;;;;;;4936256;29;20393;-69
2022/06/16 01:15:01;;;;;;;5.77;5.27;;;;;;;;;;4936235;29;20931;-67
2022/06/16 01:17:36;;;;;;;6.00;5.40;;;;;;;;;;4936244;29;20437;-69
2022/06/16 01:20:21;;;;;;;8.43;4.83;;;;;;;;;;4936505;29;20429;-67
2022/06/16 01:23:05;;;;;;;7.30;5.00;;;;;;;;;;4936148;29;20464;-67
2022/06/16 01:25:34;;;;;;;4.67;4.57;;;;;;;;;;4936108;29;20401;-70
2022/06/16 01:28:15;;;;;;;5.67;4.83;;;;;;;;;;4936106;29;20464;-64
2022/06/16 01:30:49;;;;;;;4.97;4.67;;;;;;;;;;4936025;29;20515;-67
2022/06/16 01:33:29;;;;;;;4.73;4.60;;;;;;;;;;4935948;29;20474;-63
2022/06/16 01:36:34;;;;;;;5.77;4.80;;;;;;;;;;4936325;29;20401;-67
2022/06/16 01:39:23;;;;;;;5.90;4.40;;;;;;;;;;4877484;29;20439;-67
2022/06/16 01:41:53;;;;;;;5.00;4.60;;;;;;;;;;4852398;29;20435;-66
2022/06/16 01:44:24;;;;;;;7.03;5.03;;;;;;;;;;4916153;29;20444;-68
2022/06/16 01:46:53;;;;;;;5.20;4.80;;;;;;;;;;4935895;29;20897;-68
2022/06/16 01:49:20;;;;;;;8.20;6.40;;;;;;;;;;4935956;29;20420;-67
2022/06/16 01:51:51;;;;;;;6.33;5.73;;;;;;;;;;4936128;29;20472;-70
2022/06/16 01:54:19;;;;;;;7.13;6.53;;;;;;;;;;4935932;29;20404;-65
2022/06/16 01:57:00;;;;;;;7.03;6.30;;;;;;;;;;4935924;29;20946;-67
2022/06/16 01:59:35;;;;;;;11.50;6.57;;;;;;;;;;4935900;29;20503;-65
2022/06/16 02:02:05;;;;;;;8.50;6.83;;;;;;;;;;4938855;29;20408;-68
2022/06/16 02:04:36;;;;;;;10.50;6.37;;;;;;;;;;4939453;29;20416;-68
2022/06/16 02:07:05;;;;;;;17.80;7.17;;;;;;;;;;4939349;29;20408;-64
2022/06/16 02:09:34;;;;;;;10.03;6.53;;;;;;;;;;4939564;29;20832;-62
2022/06/16 02:12:02;;;;;;;9.87;7.50;;;;;;;;;;4939277;29;20457;-65
2022/06/16 02:14:32;;;;;;;14.27;6.60;;;;;;;;;;4939196;29;20420;-67
2022/06/16 02:16:59;;;;;;;8.00;6.53;;;;;;;;;;4939157;29;20878;-62
2022/06/16 02:19:25;;;;;;;8.27;6.30;;;;;;;;;;4939004;29;20744;-62
2022/06/16 02:21:52;;;;;;;8.17;7.10;;;;;;;;;;4939025;29;20416;-65
2022/06/16 02:24:22;;;;;;;12.20;6.90;;;;;;;;;;4938975;29;20523;-62
2022/06/16 02:26:49;;;;;;;10.90;7.70;;;;;;;;;;4939031;29;20461;-64
2022/06/16 02:29:29;;;;;;;8.33;7.47;;;;;;;;;;4939004;29;20917;-65
2022/06/16 02:31:58;;;;;;;10.53;8.10;;;;;;;;;;4938724;29;20466;-61
2022/06/16 02:34:43;;;;;;;10.50;6.73;;;;;;;;;;4938780;29;20551;-62
2022/06/16 02:37:21;;;;;;;12.97;6.43;;;;;;;;;;4938820;29;20466;-61
2022/06/16 02:40:01;;;;;;;12.60;8.30;;;;;;;;;;4938732;29;20411;-61
2022/06/16 02:42:34;;;;;;;7.43;6.70;;;;;;;;;;4938586;29;20463;-61
2022/06/16 02:45:05;;;;;;;7.97;7.10;;;;;;;;;;4938663;29;20416;-62
2022/06/16 02:47:46;;;;;;;9.13;7.13;;;;;;;;;;4938603;29;20536;-61
2022/06/16 02:50:31;;;;;;;12.80;7.30;;;;;;;;;;4938729;29;20405;-63
2022/06/16 02:53:18;;;;;;;8.80;8.00;;;;;;;;;;4938552;29;20510;-64
2022/06/16 02:55:48;;;;;;;11.00;6.87;;;;;;;;;;4909140;29;20521;-61
2022/06/16 02:58:16;;;;;;;9.83;7.73;;;;;;;;;;4938486;29;20814;-63
2022/06/16 03:00:47;;;;;;;11.60;7.50;;;;;;;;;;4938374;29;20431;-63
2022/06/16 03:03:26;;;;;;;9.27;7.73;;;;;;;;;;4938155;29;20475;-61
2022/06/16 03:05:54;;;;;;;9.07;7.87;;;;;;;;;;4938533;29;20416;-62
2022/06/16 03:08:22;;;;;;;17.03;8.90;;;;;;;;;;4938447;29;20416;-61
2022/06/16 03:10:50;;;;;;;9.10;7.63;;;;;;;;;;4938382;29;20411;-62
2022/06/16 03:13:16;;;;;;;9.40;8.10;;;;;;;;;;4937237;29;20877;-63
2022/06/16 03:15:42;;;;;;;9.50;8.60;;;;;;;;;;4938116;29;20882;-61
2022/06/16 03:18:09;;;;;;;19.47;8.03;;;;;;;;;;4938039;29;20405;-61
2022/06/16 03:20:35;;;;;;;8.73;7.60;;;;;;;;;;4938214;29;20500;-61
2022/06/16 03:23:00;;;;;;;8.77;7.83;;;;;;;;;;4937908;29;20556;-62
2022/06/16 03:25:27;;;;;;;9.10;8.07;;;;;;;;;;4937922;29;20434;-62
2022/06/16 03:27:53;;;;;;;9.80;9.00;;;;;;;;;;4937815;29;20509;-61
2022/06/16 03:30:19;;;;;;;8.43;7.63;;;;;;;;;;4937915;29;20489;-62
2022/06/16 03:32:45;;;;;;;10.43;8.80;;;;;;;;;;4937493;29;20501;-62
2022/06/16 03:35:11;;;;;;;10.77;8.67;;;;;;;;;;4937689;29;20920;-62
2022/06/16 03:37:37;;;;;;;9.60;8.53;;;;;;;;;;4937881;29;20446;-65
2022/06/16 03:40:04;;;;;;;11.60;9.50;;;;;;;;;;4920563;29;20427;-62
2022/06/16 03:42:30;;;;;;;9.10;8.30;;;;;;;;;;4937776;29;20470;-64
2022/06/16 03:44:56;;;;;;;11.17;9.80;;;;;;;;;;4937448;29;20477;-61
2022/06/16 03:47:22;;;;;;;12.50;9.27;;;;;;;;;;4937502;29;20415;-64
2022/06/16 03:49:48;;;;;;;9.80;8.83;;;;;;;;;;4937496;29;20415;-64
2022/06/16 03:52:14;;;;;;;10.10;9.10;;;;;;;;;;4937619;29;20419;-63
2022/06/16 03:54:40;;;;;;;14.53;9.80;;;;;;;;;;4937420;29;20414;-63
2022/06/16 03:57:06;;;;;;;20.00;10.27;;;;;;;;;;4937282;29;20419;-62
2022/06/16 03:59:32;;;;;;;18.93;10.33;;;;;;;;;;4937504;29;20422;-61
2022/06/16 04:01:58;;;;;;;12.20;9.23;;;;;;;;;;4937419;29;20773;-64
2022/06/16 04:04:24;;;;;;;13.97;8.97;;;;;;;;;;4937179;29;20417;-63
2022/06/16 04:06:51;;;;;;;12.70;9.00;;;;;;;;;;4937189;29;20409;-62
2022/06/16 04:09:17;;;;;;;11.50;8.93;;;;;;;;;;4937102;29;20417;-63
2022/06/16 04:11:43;;;;;;;12.83;9.43;;;;;;;;;;4936910;29;20896;-61
2022/06/16 04:14:13;;;;;;;14.07;9.63;;;;;;;;;;4936943;29;20426;-61
2022/06/16 04:16:40;;;;;;;15.50;9.10;;;;;;;;;;4936976;29;20421;-62
2022/06/16 04:19:07;;;;;;;10.20;9.30;;;;;;;;;;4936989;29;20410;-61
2022/06/16 04:21:36;;;;;;;13.87;9.80;;;;;;;;;;4919815;29;20434;-66
2022/06/16 04:24:02;;;;;;;13.00;9.57;;;;;;;;;;4936745;29;20567;-61
2022/06/16 04:26:28;;;;;;;12.13;9.17;;;;;;;;;;4936825;29;20503;-61
2022/06/16 04:28:54;;;;;;;10.97;8.80;;;;;;;;;;4936836;29;20469;-60
2022/06/16 04:31:20;;;;;;;13.93;9.27;;;;;;;;;;4936852;29;20437;-61
2022/06/16 04:33:46;;;;;;;9.63;8.83;;;;;;;;;;4936651;29;20419;-61
2022/06/16 04:36:13;;;;;;;14.40;9.00;;;;;;;;;;4936662;29;20451;-62
2022/06/16 04:38:39;;;;;;;9.57;8.23;;;;;;;;;;4936660;29;20416;-65
2022/06/16 04:41:05;;;;;;;9.40;7.90;;;;;;;;;;4936620;29;20782;-65
2022/06/16 04:43:31;;;;;;;11.57;7.50;;;;;;;;;;4936443;29;20504;-64
2022/06/16 04:45:58;;;;;;;8.93;8.13;;;;;;;;;;4936585;29;20402;-64
2022/06/16 04:48:24;;;;;;;9.53;8.03;;;;;;;;;;4936458;29;20412;-62
2022/06/16 04:50:50;;;;;;;10.03;7.67;;;;;;;;;;4936529;29;20408;-65
2022/06/16 04:53:16;;;;;;;8.17;7.43;;;;;;;;;;4936519;29;20411;-62
2022/06/16 04:55:42;;;;;;;8.97;7.60;;;;;;;;;;4936460;29;20404;-61
2022/06/16 04:58:08;;;;;;;7.27;6.40;;;;;;;;;;4936368;29;20779;-62
2022/06/16 05:00:37;;;;;;;9.03;8.33;;;;;;;;;;4936625;29;20404;-64
2022/06/16 05:03:04;;;;;;;10.10;7.67;;;;;;;;;;4936224;29;20511;-62
2022/06/16 05:05:30;;;;;;;8.70;7.97;;;;;;;;;;4936549;29;20409;-62
2022/06/16 05:07:56;;;;;;;7.80;7.27;;;;;;;;;;4936290;29;20780;-62
2022/06/16 05:10:22;;;;;;;10.17;7.33;;;;;;;;;;4936259;29;20430;-63
2022/06/16 05:12:48;;;;;;;8.13;7.40;;;;;;;;;;4936277;29;20895;-62
2022/06/16 05:15:14;;;;;;;9.60;8.33;;;;;;;;;;4936228;29;20476;-61
2022/06/16 05:17:40;;;;;;;8.67;6.97;;;;;;;;;;4936246;29;20916;-63
2022/06/16 05:20:06;;;;;;;13.70;8.67;;;;;;;;;;4936247;29;20433;-63
2022/06/16 05:22:33;;;;;;;8.70;8.00;;;;;;;;;;4936340;29;20824;-60
2022/06/16 05:24:59;;;;;;;8.80;8.00;;;;;;;;;;4936117;29;20414;-61
2022/06/16 05:27:25;;;;;;;8.70;7.90;;;;;;;;;;4936149;29;20453;-63
2022/06/16 05:29:51;;;;;;;8.53;7.00;;;;;;;;;;4936150;29;20769;-61
2022/06/16 05:32:17;;;;;;;10.50;8.57;;;;;;;;;;4935894;29;20466;-61
2022/06/16 05:34:44;;;;;;;12.20;10.07;;;;;;;;;;4936079;29;20406;-62
2022/06/16 05:37:10;;;;;;;16.67;11.40;;;;;;;;;;4939586;29;20774;-61
2022/06/16 05:39:36;;;;;;;13.73;11.23;;;;;;;;;;4939850;29;20399;-61
2022/06/16 05:42:02;;;;;;;11.07;9.70;;;;;;;;;;4939727;29;20756;-62
2022/06/16 05:44:28;;;;;;;10.00;8.30;;;;;;;;;;4939769;29;20469;-62
2022/06/16 05:46:54;;;;;;;10.50;8.30;;;;;;;;;;4939678;29;20405;-63
2022/06/16 05:49:21;;;;;;;8.53;7.83;;;;;;;;;;4939665;29;20405;-61
2022/06/16 05:51:47;;;;;;;8.20;7.50;;;;;;;;;;4939661;29;20430;-62
2022/06/16 05:54:13;;;;;;;8.97;7.43;;;;;;;;;;4939614;29;20458;-62
2022/06/16 05:56:39;;;;;;;12.80;9.33;;;;;;;;;;4939588;29;20404;-61
2022/06/16 05:59:05;;;;;;;12.23;10.20;;;;;;;;;;4939421;29;20536;-61
2022/06/16 06:01:31;;;;;;;12.57;9.17;;;;;;;;;;4939447;29;20497;-62
2022/06/16 06:03:57;;;;;;;8.47;7.53;;;;;;;;;;4939559;29;20475;-62
2022/06/16 06:06:23;;;;;;;10.43;8.27;;;;;;;;;;4939612;29;20404;-62
2022/06/16 06:17:19;;;;;;;9.23;6.87;;;;;;;;;;4939272;29;20463;-63
2022/06/16 06:19:45;;;;;;;10.33;6.57;;;;;;;;;;4939256;29;20416;-62
2022/06/16 06:22:13;;;;;;;8.90;7.40;;;;;;;;;;4939089;29;20411;-66
2022/06/16 06:24:46;;;;;;;8.23;7.23;;;;;;;;;;4939344;29;20429;-65
2022/06/16 06:27:17;;;;;;;10.40;7.33;;;;;;;;;;4938985;29;20418;-62
2022/06/16 06:29:44;;;;;;;7.70;7.17;;;;;;;;;;4938963;29;20417;-62
2022/06/16 06:32:11;;;;;;;12.37;8.50;;;;;;;;;;4939090;29;20473;-61
2022/06/16 06:34:37;;;;;;;9.80;8.80;;;;;;;;;;4938906;29;20418;-65
2022/06/16 06:37:03;;;;;;;8.87;7.93;;;;;;;;;;4938792;29;20410;-68
2022/06/16 06:39:29;;;;;;;8.37;7.37;;;;;;;;;;4941002;29;20419;-70
2022/06/16 06:41:55;;;;;;;7.33;6.90;;;;;;;;;;4941716;29;20443;-72
2022/06/16 06:44:21;;;;;;;7.47;6.37;;;;;;;;;;4940193;29;20561;-63
2022/06/16 06:46:47;;;;;;;7.27;6.77;;;;;;;;;;4937535;29;20403;-66
2022/06/16 06:49:13;;;;;;;7.07;6.57;;;;;;;;;;4938447;29;20457;-64
2022/06/16 06:51:39;;;;;;;6.57;5.93;;;;;;;;;;4938648;29;20406;-64
2022/06/16 06:54:05;;;;;;;7.30;6.80;;;;;;;;;;4938475;29;20412;-63
2022/06/16 06:56:32;;;;;;;17.30;6.60;;;;;;;;;;4938492;29;20876;-66
2022/06/16 06:59:00;;;;;;;7.30;6.33;;;;;;;;;;4938444;29;20415;-68
2022/06/16 07:01:26;;;;;;;15.50;13.80;;;;;;;;;;4938416;29;20407;-71
2022/06/16 07:03:52;;;;;;;6.37;5.90;;;;;;;;;;4938272;29;20479;-66
2022/06/16 07:06:19;;;;;;;6.17;5.87;;;;;;;;;;4938324;29;20410;-62
2022/06/16 07:08:45;;;;;;;6.87;6.17;;;;;;;;;;4938350;29;20971;-63
2022/06/16 07:11:11;;;;;;;6.57;5.97;;;;;;;;;;4938191;29;20909;-63
2022/06/16 07:13:37;;;;;;;6.80;6.23;;;;;;;;;;4938138;29;20784;-71
2022/06/16 07:16:04;;;;;;;8.70;6.53;;;;;;;;;;4921070;29;20476;-79
2022/06/16 07:18:30;;;;;;;7.57;5.83;;;;;;;;;;4938059;29;20480;-81
2022/06/16 07:20:56;;;;;;;6.33;5.70;;;;;;;;;;4921145;29;20449;-79
2022/06/16 07:23:22;;;;;;;6.33;5.73;;;;;;;;;;4937930;29;20494;-75
2022/06/16 07:25:49;;;;;;;6.37;5.80;;;;;;;;;;4938292;29;20412;-77
2022/06/16 07:28:15;;;;;;;12.57;5.20;;;;;;;;;;4937913;29;20418;-79
2022/06/16 07:30:42;;;;;;;8.80;5.77;;;;;;;;;;4937838;29;20403;-72
2022/06/16 07:33:08;;;;;;;8.03;5.70;;;;;;;;;;4937686;29;20942;-76
2022/06/16 07:35:36;;;;;;;6.33;5.83;;;;;;;;;;4937830;29;20787;-77
2022/06/16 07:38:02;;;;;;;6.83;5.90;;;;;;;;;;4937790;29;20510;-79
2022/06/16 07:40:28;;;;;;;10.77;5.70;;;;;;;;;;4937904;29;20411;-74
2022/06/16 07:42:56;;;;;;;13.73;6.13;;;;;;;;;;4937777;29;20517;-77
2022/06/16 07:45:24;;;;;;;5.90;5.50;;;;;;;;;;4937746;29;20410;-79
2022/06/16 07:47:50;;;;;;;8.00;5.80;;;;;;;;;;4937511;29;20769;-78
2022/06/16 07:50:16;;;;;;;8.37;5.17;;;;;;;;;;4937521;29;20414;-74
2022/06/16 07:52:42;;;;;;;10.13;5.70;;;;;;;;;;4937560;29;20407;-83
2022/06/16 07:55:08;;;;;;;11.53;5.90;;;;;;;;;;4937694;29;20521;-75
2022/06/16 07:57:39;;;;;;;6.30;5.77;;;;;;;;;;4938523;29;20407;-74
2022/06/16 08:00:05;;;;;;;8.07;5.97;;;;;;;;;;4938889;29;20412;-81
2022/06/16 08:02:31;;;;;;;9.53;5.63;;;;;;;;;;4937192;29;20961;-77
2022/06/16 08:04:57;;;;;;;8.03;5.60;;;;;;;;;;4937455;29;20415;-76
2022/06/16 08:07:24;;;;;;;5.83;5.13;;;;;;;;;;4937209;29;20479;-77
2022/06/16 08:09:50;;;;;;;6.50;5.17;;;;;;;;;;4937201;29;20413;-77
2022/06/16 08:12:16;;;;;;;9.67;5.50;;;;;;;;;;4937045;29;20769;-80
2022/06/16 08:14:44;;;;;;;7.47;5.40;;;;;;;;;;4937097;29;20473;-82
2022/06/16 08:17:11;;;;;;;9.67;6.97;;;;;;;;;;4937046;29;20471;-79
2022/06/16 08:19:37;;;;;;;7.73;5.20;;;;;;;;;;4936962;29;20404;-81
2022/06/16 08:22:04;;;;;;;6.80;5.10;;;;;;;;;;4937694;29;20419;-80
2022/06/16 08:24:31;;;;;;;4.90;4.30;;;;;;;;;;4936986;29;20447;-80
2022/06/16 08:26:57;;;;;;;8.37;6.77;;;;;;;;;;4937105;29;20899;-78
2022/06/16 08:29:25;;;;;;;10.50;6.40;;;;;;;;;;4936802;29;20411;-75
2022/06/16 08:31:51;;;;;;;5.20;4.70;;;;;;;;;;4936692;29;20516;-79
2022/06/16 08:34:17;;;;;;;5.10;4.80;;;;;;;;;;4937058;29;20443;-80
2022/06/16 08:36:43;;;;;;;5.63;4.70;;;;;;;;;;4936771;29;20408;-81
2022/06/16 08:39:10;;;;;;;10.70;4.80;;;;;;;;;;4937197;29;20440;-77
2022/06/16 08:41:50;;;;;;;5.73;5.00;;;;;;;;;;4936602;29;20408;-77
2022/06/16 08:44:31;;;;;;;9.10;4.80;;;;;;;;;;4936547;29;20946;-79
2022/06/16 08:47:10;;;;;;;5.90;4.40;;;;;;;;;;4936546;29;20411;-77
2022/06/16 08:49:42;;;;;;;7.20;4.90;;;;;;;;;;4936587;29;20420;-72
2022/06/16 08:52:21;;;;;;;5.60;4.37;;;;;;;;;;4936848;29;20439;-78
2022/06/16 08:55:07;;;;;;;14.67;4.40;;;;;;;;;;4936780;29;20421;-71
2022/06/16 08:57:36;;;;;;;4.97;4.53;;;;;;;;;;4936468;29;20424;-77
2022/06/16 09:00:21;;;;;;;6.00;4.50;;;;;;;;;;4936481;29;20401;-72
2022/06/16 09:02:56;;;;;;;8.13;4.77;;;;;;;;;;4936831;29;20460;-77
2022/06/16 09:05:36;;;;;;;4.90;4.67;;;;;;;;;;4936561;29;20491;-73
2022/06/16 09:08:13;;;;;;;8.90;4.73;;;;;;;;;;4936540;29;20422;-86
2022/06/16 09:10:44;;;;;;;4.67;4.47;;;;;;;;;;4935732;29;20409;-65
2022/06/16 09:13:28;;;;;;;5.17;4.77;;;;;;;;;;4936136;29;20412;-67
2022/06/16 09:15:54;;;;;;;5.07;4.60;;;;;;;;;;4936278;29;20409;-65
2022/06/16 09:18:38;;;;;;;8.97;4.63;;;;;;;;;;4936355;29;20908;-63
2022/06/16 09:21:11;;;;;;;4.90;4.40;;;;;;;;;;4936240;29;20416;-66
2022/06/16 09:23:40;;;;;;;7.37;4.60;;;;;;;;;;4936074;29;20456;-63
2022/06/16 09:26:06;;;;;;;6.60;4.70;;;;;;;;;;4936115;29;20448;-78
2022/06/16 09:28:37;;;;;;;4.50;4.20;;;;;;;;;;4936015;29;20409;-77
2022/06/16 09:31:07;;;;;;;4.77;4.30;;;;;;;;;;4936085;29;20884;-87
2022/06/16 09:33:39;;;;;;;9.53;4.60;;;;;;;;;;4935947;29;20472;-78
2022/06/16 09:36:07;;;;;;;5.10;3.80;;;;;;;;;;4935022;29;20397;-86
2022/06/16 09:38:39;;;;;;;4.80;4.40;;;;;;;;;;4935191;29;20405;-64
2022/06/16 09:42:32;;;;;;;4.23;3.93;;;;;;;;;;4934661;29;20775;-83
2022/06/16 09:43:55;;;;;;;6.47;4.13;;;;;;;;;;4934806;29;20575;-73
2022/06/16 09:46:30;;;;;;;3.40;3.20;;;;;;;;;;4935003;29;20471;-74
2022/06/16 09:49:03;;;;;;;3.40;3.20;;;;;;;;;;4935066;29;20431;-77
2022/06/16 09:51:36;;;;;;;3.63;3.33;;;;;;;;;;4935357;29;20896;-69
2022/06/16 09:54:02;;;;;;;3.97;3.67;;;;;;;;;;4935376;29;20440;-65
2022/06/16 09:56:34;;;;;;;9.00;3.87;;;;;;;;;;4935335;29;20436;-64
2022/06/16 09:59:02;;;;;;;3.83;3.20;;;;;;;;;;4935047;29;20877;-65
2022/06/16 10:01:30;;;;;;;7.10;3.00;;;;;;;;;;4935293;29;20504;-62
2022/06/16 10:03:58;;;;;;;4.00;3.30;;;;;;;;;;4934881;29;20562;-77
2022/06/16 10:06:42;;;;;;;3.80;3.47;;;;;;;;;;4935139;29;20401;-71
2022/06/16 10:09:08;;;;;;;2.87;2.77;;;;;;;;;;4935073;29;20500;-62
2022/06/16 10:11:53;;;;;;;2.97;2.80;;;;;;;;;;4935330;29;20507;-62
2022/06/16 10:14:35;;;;;;;3.63;2.90;;;;;;;;;;4917909;29;20519;-63
2022/06/16 10:17:02;;;;;;;5.13;3.20;;;;;;;;;;4935290;29;20411;-66
2022/06/16 10:19:30;;;;;;;2.83;2.63;;;;;;;;;;4934864;29;20404;-64
2022/06/16 10:21:57;;;;;;;3.27;2.93;;;;;;;;;;4936363;29;20403;-77
2022/06/16 10:24:29;;;;;;;3.53;3.10;;;;;;;;;;4943683;29;20460;-79
2022/06/16 10:26:57;;;;;;;3.50;3.30;;;;;;;;;;4946349;29;20400;-78
2022/06/16 10:29:25;;;;;;;4.13;3.77;;;;;;;;;;4949460;29;20415;-76
2022/06/16 10:31:52;;;;;;;5.67;2.80;;;;;;;;;;4948533;29;20472;-84
2022/06/16 10:34:29;;;;;;;3.47;3.20;;;;;;;;;;4938412;29;20413;-67
2022/06/16 10:37:18;;;;;;;3.70;3.30;;;;;;;;;;4940394;29;20476;-77
2022/06/16 10:39:54;;;;;;;3.77;3.53;;;;;;;;;;4935672;29;20432;-77
2022/06/16 10:42:22;;;;;;;7.60;3.20;;;;;;;;;;4941884;29;20444;-79
2022/06/16 10:44:50;;;;;;;4.83;3.40;;;;;;;;;;4943961;29;20445;-79
2022/06/16 10:47:22;;;;;;;4.23;3.10;;;;;;;;;;4944917;29;20405;-79
2022/06/16 10:49:48;;;;;;;4.97;3.17;;;;;;;;;;4942141;29;20472;-79
2022/06/16 10:52:22;;;;;;;5.03;2.87;;;;;;;;;;4941184;29;20412;-74
2022/06/16 10:55:07;;;;;;;3.43;3.00;;;;;;;;;;4938170;29;20419;-82
2022/06/16 10:57:40;;;;;;;3.20;2.97;;;;;;;;;;4938120;29;20401;-75
2022/06/16 11:00:15;;;;;;;5.30;2.70;;;;;;;;;;4937745;29;20412;-63
2022/06/16 11:03:01;;;;;;;3.70;3.50;;;;;;;;;;4938024;29;20456;-77
2022/06/16 11:05:28;;;;;;;3.10;2.80;;;;;;;;;;4947119;29;20423;-69
2022/06/16 11:08:04;;;;;;;3.30;3.20;;;;;;;;;;4941322;29;20413;-75
2022/06/16 11:10:32;;;;;;;3.20;3.10;;;;;;;;;;4938168;29;20441;-76
2022/06/16 11:12:58;;;;;;;3.47;3.27;;;;;;;;;;4937149;29;20426;-71
2022/06/16 11:15:35;;;;;;;2.97;2.73;;;;;;;;;;4937288;29;20888;-69
2022/06/16 11:18:03;;;;;;;3.13;3.03;;;;;;;;;;4937035;29;20768;-65
2022/06/16 11:20:32;;;;;;;3.43;3.33;;;;;;;;;;4937144;29;20401;-69
2022/06/16 11:22:58;;;;;;;3.33;3.23;;;;;;;;;;4937203;29;20464;-64
2022/06/16 11:25:28;;;;;;;5.70;2.97;;;;;;;;;;4937118;29;20401;-67
2022/06/16 11:28:12;;;;;;;4.20;3.40;;;;;;;;;;4937401;29;20772;-64
2022/06/16 11:30:59;;;;;;;3.20;3.00;;;;;;;;;;4937959;29;20409;-72
2022/06/16 11:36:22;;;;;;;6.53;3.23;;;;;;;;;;4937634;29;20560;-71
2022/06/16 11:38:55;;;;;;;4.77;3.20;;;;;;;;;;4937299;29;20404;-81
2022/06/16 11:41:22;;;;;;;7.60;3.20;;;;;;;;;;4936982;29;20489;-71
2022/06/16 11:44:00;;;;;;;4.73;3.00;;;;;;;;;;4936854;29;20475;-73
2022/06/16 11:46:26;;;;;;;2.90;2.67;;;;;;;;;;4936957;29;20863;-67
2022/06/16 11:49:13;;;;;;;6.37;3.10;;;;;;;;;;4937170;29;20447;-74
2022/06/16 11:51:50;;;;;;;5.20;3.27;;;;;;;;;;4926848;29;20555;-76
2022/06/16 11:54:19;;;;;;;3.60;3.40;;;;;;;;;;4936754;29;20455;-76
2022/06/16 11:57:02;;;;;;;4.27;3.10;;;;;;;;;;4936645;29;20401;-73
2022/06/16 11:59:28;;;;;;;3.80;3.13;;;;;;;;;;4936415;29;20435;-79
2022/06/16 12:02:13;;;;;;;7.83;3.30;;;;;;;;;;4936368;29;20396;-73
2022/06/16 12:04:39;;;;;;;3.40;3.10;;;;;;;;;;4936454;29;20195;-71
2022/06/16 12:07:24;;;;;;;3.47;3.37;;;;;;;;;;4936626;29;20927;-71
2022/06/16 12:10:02;;;;;;;2.93;2.77;;;;;;;;;;4936369;29;20625;-67
2022/06/16 12:12:32;;;;;;;3.43;3.10;;;;;;;;;;4936296;29;20935;-64
2022/06/16 12:15:02;;;;;;;5.70;2.73;;;;;;;;;;4936295;29;20412;-71
2022/06/16 12:17:35;;;;;;;3.20;3.00;;;;;;;;;;4936394;29;20409;-74
2022/06/16 12:20:17;;;;;;;4.70;3.20;;;;;;;;;;4936002;29;20923;-71
2022/06/16 12:22:47;;;;;;;3.10;3.00;;;;;;;;;;4936355;29;20532;-76
2022/06/16 12:25:12;;;;;;;3.20;2.90;;;;;;;;;;4936482;29;20572;-72
2022/06/16 12:27:46;;;;;;;2.90;2.90;;;;;;;;;;4936331;29;20448;-74
2022/06/16 12:30:14;;;;;;;2.90;2.80;;;;;;;;;;4935999;29;20231;-68
2022/06/16 12:32:43;;;;;;;2.80;2.70;;;;;;;;;;4935896;29;20460;-79
2022/06/16 12:35:18;;;;;;;2.60;2.50;;;;;;;;;;4935903;29;20433;-79
2022/06/16 12:37:47;;;;;;;4.10;3.27;;;;;;;;;;4936001;29;20440;-73
2022/06/16 12:40:22;;;;;;;2.93;2.73;;;;;;;;;;4935978;29;20581;-72
2022/06/16 12:43:24;;;;;;;7.17;2.80;;;;;;;;;;4935756;29;20463;-74
2022/06/16 12:45:54;;;;;;;4.20;2.60;;;;;;;;;;4876962;29;20466;-75
2022/06/16 12:48:25;;;;;;;3.23;2.50;;;;;;;;;;4926120;29;20432;-71
2022/06/16 12:50:56;;;;;;;2.93;2.73;;;;;;;;;;4936078;29;20413;-71
2022/06/16 12:53:30;;;;;;;2.90;2.90;;;;;;;;;;4936096;29;20620;-73
2022/06/16 12:56:15;;;;;;;8.90;2.67;;;;;;;;;;4935740;29;20503;-77
2022/06/16 12:59:04;;;;;;;5.23;2.40;;;;;;;;;;4935555;29;20404;-65
2022/06/16 13:01:30;;;;;;;3.53;2.67;;;;;;;;;;4935996;29;20484;-71
2022/06/16 13:04:01;;;;;;;2.90;2.30;;;;;;;;;;4935509;29;20503;-75
2022/06/16 13:06:27;;;;;;;2.67;2.50;;;;;;;;;;4935459;29;20405;-76
2022/06/16 13:08:56;;;;;;;2.80;2.70;;;;;;;;;;4935571;29;20412;-74
2022/06/16 13:11:25;;;;;;;3.10;2.90;;;;;;;;;;4935838;29;20768;-70
2022/06/16 13:14:12;;;;;;;5.50;2.93;;;;;;;;;;4935580;29;20401;-80
2022/06/16 13:16:40;;;;;;;4.60;2.80;;;;;;;;;;4935420;29;20930;-79
2022/06/16 13:19:09;;;;;;;4.43;2.83;;;;;;;;;;4935483;29;20593;-76
2022/06/16 13:21:42;;;;;;;2.93;2.83;;;;;;;;;;4935310;29;20397;-67
2022/06/16 13:24:10;;;;;;;2.23;2.13;;;;;;;;;;4935364;29;20512;-68
2022/06/16 13:26:42;;;;;;;2.80;2.70;;;;;;;;;;4935301;29;20444;-68
2022/06/16 13:29:09;;;;;;;2.60;2.40;;;;;;;;;;4935416;29;20419;-74
2022/06/16 13:31:43;;;;;;;4.00;2.37;;;;;;;;;;4935182;29;20416;-77
2022/06/16 13:34:20;;;;;;;8.07;3.13;;;;;;;;;;4935412;29;20408;-78
2022/06/16 13:36:46;;;;;;;3.03;2.90;;;;;;;;;;4935309;29;20401;-72
2022/06/16 13:39:32;;;;;;;10.10;3.03;;;;;;;;;;4935247;29;20417;-76
2022/06/16 13:42:03;;;;;;;6.97;3.07;;;;;;;;;;4935148;29;20185;-71
2022/06/16 13:44:29;;;;;;;3.47;3.17;;;;;;;;;;4935223;29;20464;-71
2022/06/16 13:46:55;;;;;;;3.70;3.40;;;;;;;;;;4935662;29;20401;-70
2022/06/16 13:49:28;;;;;;;2.83;2.57;;;;;;;;;;4935053;29;20455;-80
2022/06/16 13:52:04;;;;;;;3.07;2.97;;;;;;;;;;4935068;29;20537;-74
2022/06/16 13:54:34;;;;;;;6.93;2.70;;;;;;;;;;4918005;29;20408;-69
2022/06/16 13:57:16;;;;;;;6.83;3.03;;;;;;;;;;4936897;29;20431;-70
2022/06/16 13:59:44;;;;;;;6.77;2.53;;;;;;;;;;4938763;29;20936;-69
2022/06/16 14:02:16;;;;;;;3.03;2.83;;;;;;;;;;4938794;29;20408;-69
2022/06/16 14:05:00;;;;;;;4.73;3.30;;;;;;;;;;4938923;29;20468;-70
2022/06/16 14:07:26;;;;;;;3.27;2.97;;;;;;;;;;4940881;29;20389;-72
2022/06/16 14:09:54;;;;;;;2.83;2.73;;;;;;;;;;4939418;29;20503;-77
2022/06/16 14:12:21;;;;;;;3.13;2.83;;;;;;;;;;4938510;29;20405;-76
2022/06/16 14:14:56;;;;;;;2.83;2.73;;;;;;;;;;4938651;29;20413;-76
2022/06/16 14:17:31;;;;;;;13.50;7.93;;;;;;;;;;4938279;29;20761;-77
2022/06/16 14:20:16;;;;;;;4.30;2.60;;;;;;;;;;4938369;29;20421;-64
2022/06/16 14:22:46;;;;;;;3.70;2.67;;;;;;;;;;4938171;29;20931;-62
2022/06/16 14:25:12;;;;;;;3.97;3.67;;;;;;;;;;4938489;29;20417;-63
2022/06/16 14:27:49;;;;;;;3.90;2.57;;;;;;;;;;4938084;29;20408;-62
2022/06/16 14:30:19;;;;;;;2.97;2.70;;;;;;;;;;4938143;29;20441;-62
2022/06/16 14:33:06;;;;;;;3.30;3.10;;;;;;;;;;4937904;29;21025;-64
2022/06/16 14:35:37;;;;;;;2.93;2.73;;;;;;;;;;4937938;29;20416;-62
2022/06/16 14:38:05;;;;;;;14.53;12.70;;;;;;;;;;4937964;29;20401;-63
2022/06/16 14:40:46;;;;;;;4.43;4.33;;;;;;;;;;4938140;29;20907;-62
2022/06/16 14:43:18;;;;;;;3.57;3.00;;;;;;;;;;4938134;29;20480;-62
2022/06/16 14:45:46;;;;;;;4.50;2.77;;;;;;;;;;4937803;29;20500;-62
2022/06/16 14:48:18;;;;;;;3.07;2.80;;;;;;;;;;4937940;29;20460;-75
2022/06/16 14:50:46;;;;;;;2.90;2.70;;;;;;;;;;4937881;29;20511;-68
2022/06/16 14:53:15;;;;;;;3.10;2.80;;;;;;;;;;4937817;29;20437;-74
2022/06/16 14:55:46;;;;;;;2.50;2.40;;;;;;;;;;4937834;29;20881;-65
2022/06/16 14:58:12;;;;;;;2.63;2.43;;;;;;;;;;4937841;29;20418;-63
2022/06/16 15:00:42;;;;;;;3.20;2.67;;;;;;;;;;4938221;29;20404;-63
2022/06/16 15:03:10;;;;;;;4.10;2.50;;;;;;;;;;4937729;29;20460;-62
2022/06/16 15:05:37;;;;;;;4.43;2.13;;;;;;;;;;4937425;29;20908;-63
2022/06/16 15:08:03;;;;;;;2.70;2.60;;;;;;;;;;4936511;29;20500;-64
2022/06/16 15:10:31;;;;;;;2.53;2.40;;;;;;;;;;4937756;29;20463;-69
2022/06/16 15:13:05;;;;;;;2.97;2.10;;;;;;;;;;4937505;29;20404;-69
2022/06/16 15:15:33;;;;;;;2.90;2.80;;;;;;;;;;4937442;29;20415;-73